Time;durP1;ratioP1;P1;durP2;ratioP2;P2;SDS_P1;SDS_P2;PMS_P1;PMS_P2;Temp;Humidity;BMP_temperature;BMP_pressure;BME280_temperature;BME280_humidity;BME280_pressure;Samples;Min_cycle;Max_cycle;Signal;HPM_P1;HPM_P2
2023/01/25 00:01:05;;;;;;;41.05;14.02;;;5.40;99.90;;;;;;5089493;28;20442;-62
2023/01/25 00:03:33;;;;;;;30.50;14.02;;;5.50;99.90;;;;;;5098039;28;20055;-62
2023/01/25 00:06:01;;;;;;;34.25;15.50;;;5.50;99.90;;;;;;5091529;28;20505;-64
2023/01/25 00:08:28;;;;;;;34.15;14.02;;;5.40;99.90;;;;;;5109769;28;20053;-62
2023/01/25 00:10:56;;;;;;;29.00;13.48;;;5.50;99.90;;;;;;5091490;28;20517;-63
2023/01/25 00:13:25;;;;;;;29.20;11.52;;;5.40;99.90;;;;;;5107635;28;20052;-62
2023/01/25 00:15:59;;;;;;;27.08;11.93;;;5.50;99.90;;;;;;5084702;28;20522;-64
2023/01/25 00:18:27;;;;;;;25.10;11.75;;;5.50;99.90;;;;;;5091707;28;20471;-64
2023/01/25 00:20:54;;;;;;;33.05;12.18;;;5.50;99.90;;;;;;5109979;28;20502;-63
2023/01/25 00:23:22;;;;;;;27.63;11.63;;;5.50;99.90;;;;;;5116506;28;20505;-62
2023/01/25 00:25:56;;;;;;;29.90;11.93;;;5.40;99.90;;;;;;5130205;28;20043;-62
2023/01/25 00:28:25;;;;;;;30.55;11.52;;;5.50;99.90;;;;;;5117168;28;20042;-62
2023/01/25 00:30:52;;;;;;;28.48;12.27;;;5.50;99.90;;;;;;5074817;28;20518;-62
2023/01/25 00:33:48;;;;;;;27.02;12.00;;;5.50;99.90;;;;;;5095386;28;20048;-59
2023/01/25 00:36:38;;;;;;;29.08;11.73;;;5.50;99.90;;;;;;5113567;28;20518;-59
2023/01/25 00:39:11;;;;;;;28.38;12.68;;;5.50;99.90;;;;;;5095148;28;20062;-62
2023/01/25 00:41:39;;;;;;;24.27;11.35;;;5.40;99.90;;;;;;5095241;28;20478;-59
2023/01/25 00:44:07;;;;;;;26.02;11.48;;;5.50;99.90;;;;;;5110205;27;20044;-59
2023/01/25 00:46:35;;;;;;;24.02;10.38;;;5.50;99.90;;;;;;5091530;28;20044;-60
2023/01/25 00:49:06;;;;;;;21.20;8.93;;;5.50;99.90;;;;;;5106916;28;20048;-59
2023/01/25 00:51:34;;;;;;;30.33;10.93;;;5.50;99.90;;;;;;5092944;28;20043;-60
2023/01/25 00:54:01;;;;;;;24.95;10.20;;;5.50;99.90;;;;;;5114112;27;20047;-59
2023/01/25 00:56:29;;;;;;;24.15;10.27;;;5.40;99.90;;;;;;5094848;28;20058;-59
2023/01/25 00:58:57;;;;;;;24.55;9.85;;;5.50;99.90;;;;;;5089104;28;20036;-59
2023/01/25 01:01:25;;;;;;;22.90;10.93;;;5.40;99.90;;;;;;5073317;28;20043;-58
2023/01/25 01:03:53;;;;;;;22.75;10.23;;;5.50;99.90;;;;;;5100137;28;20044;-62
2023/01/25 01:06:20;;;;;;;21.60;9.90;;;5.40;99.90;;;;;;5110116;28;20109;-62
2023/01/25 01:08:48;;;;;;;23.70;10.05;;;5.40;99.90;;;;;;5112964;28;20505;-63
2023/01/25 01:11:15;;;;;;;22.52;10.23;;;5.40;99.90;;;;;;5112937;28;20043;-62
2023/01/25 01:13:43;;;;;;;21.50;10.27;;;5.40;99.90;;;;;;5098244;27;20039;-61
2023/01/25 01:16:12;;;;;;;25.25;10.23;;;5.40;99.90;;;;;;5092242;28;20054;-62
2023/01/25 01:18:42;;;;;;;20.98;9.43;;;5.40;99.90;;;;;;5083784;28;20658;-63
2023/01/25 01:21:12;;;;;;;20.05;9.60;;;5.40;99.90;;;;;;5112748;28;20054;-63
2023/01/25 01:23:40;;;;;;;25.20;11.05;;;5.40;99.90;;;;;;5112672;28;20473;-61
2023/01/25 01:26:10;;;;;;;24.08;10.00;;;5.40;99.90;;;;;;5111747;28;20044;-62
2023/01/25 01:28:38;;;;;;;26.08;10.85;;;5.40;99.90;;;;;;5100839;27;20051;-62
2023/01/25 01:31:10;;;;;;;25.15;11.00;;;5.40;99.90;;;;;;5073923;28;20056;-62
2023/01/25 01:33:42;;;;;;;21.40;9.18;;;5.40;99.90;;;;;;5103503;27;20042;-62
2023/01/25 01:36:13;;;;;;;21.52;10.25;;;5.40;99.90;;;;;;5092610;28;20075;-62
2023/01/25 01:38:41;;;;;;;29.00;10.68;;;5.40;99.90;;;;;;5119867;27;20043;-62
2023/01/25 01:41:10;;;;;;;27.65;10.15;;;5.40;99.90;;;;;;5111835;28;20059;-63
2023/01/25 01:43:38;;;;;;;22.95;9.77;;;5.40;99.90;;;;;;5133194;27;20043;-60
2023/01/25 01:46:11;;;;;;;24.83;10.52;;;5.40;99.90;;;;;;5070247;28;20423;-62
2023/01/25 01:48:48;;;;;;;25.38;10.75;;;5.40;99.90;;;;;;5082976;28;20043;-60
2023/01/25 01:51:31;;;;;;;23.83;10.40;;;5.40;99.90;;;;;;5091191;28;20404;-62
2023/01/25 01:54:29;;;;;;;24.27;9.75;;;5.40;99.90;;;;;;5130758;27;20035;-64
2023/01/25 01:57:06;;;;;;;21.52;9.48;;;5.40;99.90;;;;;;5101084;27;20117;-63
2023/01/25 01:59:41;;;;;;;24.92;10.55;;;5.50;99.90;;;;;;5090995;28;20545;-64
2023/01/25 02:02:09;;;;;;;27.08;10.85;;;5.40;99.90;;;;;;5091601;28;20368;-61
2023/01/25 02:04:37;;;;;;;30.70;11.60;;;5.40;99.90;;;;;;5106761;27;20043;-59
2023/01/25 02:07:29;;;;;;;24.25;10.82;;;5.50;99.90;;;;;;5102772;28;20061;-60
2023/01/25 02:09:59;;;;;;;22.80;10.90;;;5.50;99.90;;;;;;5094499;28;20043;-59
2023/01/25 02:12:28;;;;;;;27.25;10.68;;;5.50;99.90;;;;;;5093284;28;20044;-60
2023/01/25 02:14:56;;;;;;;29.75;11.48;;;5.50;99.90;;;;;;5099994;28;20495;-58
2023/01/25 02:17:27;;;;;;;25.85;10.35;;;5.50;99.90;;;;;;5092822;28;21451;-58
2023/01/25 02:20:17;;;;;;;23.98;10.27;;;5.50;99.90;;;;;;5111384;28;20559;-62
2023/01/25 02:22:55;;;;;;;25.67;9.77;;;5.50;99.90;;;;;;5094010;27;20042;-60
2023/01/25 02:25:23;;;;;;;26.23;10.20;;;5.50;99.90;;;;;;5113453;27;20401;-60
2023/01/25 02:28:13;;;;;;;25.40;10.50;;;5.50;99.90;;;;;;5095192;28;20507;-63
2023/01/25 02:30:42;;;;;;;26.05;11.80;;;5.50;99.90;;;;;;5074483;28;20052;-62
2023/01/25 02:33:10;;;;;;;26.27;11.13;;;5.40;99.90;;;;;;5089230;28;20039;-62
2023/01/25 02:35:44;;;;;;;26.70;11.40;;;5.50;99.90;;;;;;5114411;27;20040;-63
2023/01/25 02:38:14;;;;;;;25.60;11.05;;;5.50;99.90;;;;;;5102922;27;20047;-61
2023/01/25 02:40:47;;;;;;;25.58;10.98;;;5.50;99.90;;;;;;5114804;27;20493;-63
2023/01/25 02:43:16;;;;;;;22.83;10.77;;;5.50;99.90;;;;;;5127884;27;20048;-63
2023/01/25 02:45:53;;;;;;;31.65;12.07;;;5.50;99.90;;;;;;5072097;28;20055;-61
2023/01/25 02:48:22;;;;;;;23.60;10.38;;;5.50;99.90;;;;;;5073691;28;20044;-62
2023/01/25 02:50:49;;;;;;;21.77;9.00;;;5.50;99.90;;;;;;5088179;28;20518;-62
2023/01/25 02:53:17;;;;;;;25.20;10.18;;;5.50;99.90;;;;;;5111971;28;20051;-62
2023/01/25 02:55:45;;;;;;;21.45;9.73;;;5.50;99.90;;;;;;5112678;28;20040;-61
2023/01/25 02:58:12;;;;;;;24.77;9.88;;;5.50;99.90;;;;;;5092632;28;20050;-60
2023/01/25 03:00:40;;;;;;;24.90;9.40;;;5.50;99.90;;;;;;5092238;28;20032;-62
2023/01/25 03:03:08;;;;;;;25.23;10.32;;;5.60;99.90;;;;;;5094325;28;20051;-62
2023/01/25 03:05:36;;;;;;;20.98;9.25;;;;;;;;;;5093709;28;20048;-62
2023/01/25 03:08:03;;;;;;;23.00;10.13;;;5.60;99.90;;;;;;5112363;28;20059;-61
2023/01/25 03:10:31;;;;;;;23.30;10.02;;;5.60;99.90;;;;;;5094191;28;20044;-58
2023/01/25 03:13:00;;;;;;;27.00;11.32;;;5.60;99.90;;;;;;5091589;28;20039;-62
2023/01/25 03:15:28;;;;;;;23.17;10.43;;;5.60;99.90;;;;;;5089362;28;20048;-62
2023/01/25 03:17:56;;;;;;;24.25;10.55;;;5.60;99.90;;;;;;5083779;28;20050;-63
2023/01/25 03:20:24;;;;;;;30.60;11.63;;;5.60;99.90;;;;;;5112146;28;20062;-63
2023/01/25 03:22:52;;;;;;;21.00;9.80;;;5.60;99.90;;;;;;5128084;27;20483;-62
2023/01/25 03:25:20;;;;;;;18.95;9.02;;;5.70;99.90;;;;;;5093872;28;20055;-63
2023/01/25 03:27:56;;;;;;;26.92;11.55;;;5.70;99.90;;;;;;5094013;28;20429;-62
2023/01/25 03:30:24;;;;;;;22.80;10.05;;;5.70;99.90;;;;;;5093689;28;20380;-60
2023/01/25 03:32:52;;;;;;;19.63;9.82;;;5.70;99.90;;;;;;5092787;28;20501;-62
2023/01/25 03:35:20;;;;;;;28.23;11.35;;;5.70;99.90;;;;;;5093944;28;20052;-63
2023/01/25 03:37:47;;;;;;;25.73;10.30;;;5.70;99.90;;;;;;5076824;28;20494;-60
2023/01/25 03:40:16;;;;;;;22.50;10.75;;;5.70;99.90;;;;;;5127544;27;20044;-62
2023/01/25 03:42:48;;;;;;;22.63;9.90;;;5.70;99.90;;;;;;5107713;28;20044;-62
2023/01/25 03:45:16;;;;;;;21.63;10.43;;;5.70;99.90;;;;;;5110425;28;20044;-60
2023/01/25 03:47:44;;;;;;;21.63;10.07;;;5.70;99.90;;;;;;5093819;28;20039;-63
2023/01/25 03:50:12;;;;;;;28.23;11.02;;;5.80;99.90;;;;;;5127863;28;20040;-61
2023/01/25 03:52:44;;;;;;;21.70;9.82;;;5.70;99.90;;;;;;5092886;28;20050;-61
2023/01/25 03:55:11;;;;;;;22.95;11.05;;;5.70;99.90;;;;;;5093896;28;20040;-62
2023/01/25 03:57:41;;;;;;;24.58;10.77;;;5.80;99.90;;;;;;5075723;28;20040;-63
2023/01/25 04:00:12;;;;;;;23.40;10.10;;;5.80;99.90;;;;;;5127570;28;20048;-61
2023/01/25 04:02:46;;;;;;;29.65;11.48;;;5.80;99.90;;;;;;5093801;28;20052;-60
2023/01/25 04:05:18;;;;;;;21.90;9.93;;;5.80;99.90;;;;;;5097675;28;20048;-62
2023/01/25 04:07:47;;;;;;;24.15;10.35;;;;;;;;;;5097145;28;20516;-60
2023/01/25 04:10:19;;;;;;;21.80;10.48;;;5.80;99.90;;;;;;5087138;28;20036;-61
2023/01/25 04:12:48;;;;;;;22.33;11.02;;;5.70;99.90;;;;;;5131657;27;20059;-61
2023/01/25 04:15:16;;;;;;;21.40;10.43;;;5.80;99.90;;;;;;5097112;28;20043;-58
2023/01/25 04:17:43;;;;;;;24.08;10.07;;;5.80;99.90;;;;;;5092152;28;20039;-62
2023/01/25 04:20:18;;;;;;;20.00;9.77;;;5.70;99.90;;;;;;5097456;28;20051;-61
2023/01/25 04:22:45;;;;;;;21.50;9.20;;;5.80;99.90;;;;;;5097414;28;20054;-59
2023/01/25 04:25:15;;;;;;;24.30;11.68;;;5.80;99.90;;;;;;5097363;28;20039;-63
2023/01/25 04:27:49;;;;;;;24.52;11.18;;;5.80;99.90;;;;;;5097150;28;20050;-62
2023/01/25 04:30:17;;;;;;;23.10;9.82;;;5.90;99.90;;;;;;5097059;28;20044;-59
2023/01/25 04:32:46;;;;;;;23.73;10.75;;;5.80;99.90;;;;;;5097114;28;20048;-59
2023/01/25 04:35:24;;;;;;;20.15;9.68;;;5.90;99.90;;;;;;5097227;28;20041;-61
2023/01/25 04:37:57;;;;;;;23.35;10.73;;;5.90;99.90;;;;;;5096971;28;20069;-62
2023/01/25 04:40:33;;;;;;;19.45;10.38;;;5.90;99.90;;;;;;5097073;28;20055;-59
2023/01/25 04:43:01;;;;;;;18.73;9.10;;;5.90;99.90;;;;;;5120162;27;20062;-61
2023/01/25 04:45:30;;;;;;;22.60;9.20;;;5.90;99.90;;;;;;5096758;28;20040;-63
2023/01/25 04:48:05;;;;;;;16.90;8.93;;;5.80;99.90;;;;;;5096810;28;20044;-62
2023/01/25 04:50:33;;;;;;;26.27;9.68;;;5.90;99.90;;;;;;5096778;28;20039;-62
2023/01/25 04:53:01;;;;;;;21.15;9.77;;;5.80;99.90;;;;;;5096207;28;20036;-62
2023/01/25 04:55:30;;;;;;;21.95;9.93;;;5.80;99.90;;;;;;5096779;28;20047;-63
2023/01/25 04:58:01;;;;;;;23.33;10.07;;;5.70;99.90;;;;;;5096716;28;20039;-57
2023/01/25 05:00:31;;;;;;;21.73;9.43;;;5.70;99.90;;;;;;5114548;28;20044;-61
2023/01/25 05:03:01;;;;;;;22.48;11.23;;;5.70;99.90;;;;;;5096734;28;20050;-61
2023/01/25 05:05:29;;;;;;;19.70;9.05;;;5.70;99.90;;;;;;5096483;28;20050;-64
2023/01/25 05:07:58;;;;;;;22.70;10.32;;;5.70;99.90;;;;;;5093107;28;20058;-61
2023/01/25 05:10:26;;;;;;;21.73;9.68;;;5.70;99.90;;;;;;5114699;28;20047;-63
2023/01/25 05:13:20;;;;;;;19.85;9.20;;;5.60;99.90;;;;;;5090447;28;20059;-62
2023/01/25 05:15:56;;;;;;;21.98;10.00;;;5.70;99.90;;;;;;5095401;28;20039;-64
2023/01/25 05:18:24;;;;;;;22.98;9.93;;;5.60;99.90;;;;;;5096307;28;20051;-64
2023/01/25 05:20:55;;;;;;;20.83;9.75;;;5.60;99.90;;;;;;5096380;28;20035;-63
2023/01/25 05:23:25;;;;;;;23.35;10.27;;;5.60;99.90;;;;;;5096069;28;20044;-63
2023/01/25 05:28:40;;;;;;;21.83;9.38;;;5.70;99.90;;;;;;5096235;28;20048;-63
2023/01/25 05:31:34;;;;;;;21.20;9.65;;;5.60;99.90;;;;;;5110048;28;20055;-60
2023/01/25 05:34:01;;;;;;;18.75;10.00;;;5.70;99.90;;;;;;5096105;28;20039;-62
2023/01/25 05:36:29;;;;;;;27.58;10.70;;;5.70;99.90;;;;;;5096242;28;20055;-62
2023/01/25 05:38:57;;;;;;;23.08;10.15;;;5.70;99.90;;;;;;5114233;28;20380;-62
2023/01/25 05:41:25;;;;;;;18.75;9.07;;;5.70;99.90;;;;;;5098618;28;20061;-61
2023/01/25 05:43:52;;;;;;;24.30;11.00;;;5.70;99.90;;;;;;5093833;28;20394;-62
2023/01/25 05:46:22;;;;;;;;;;;5.70;99.90;;;;;;5098024;28;20376;-63
2023/01/25 05:48:50;;;;;;;18.58;9.05;;;5.70;99.90;;;;;;5082336;28;19927;-62
2023/01/25 05:51:18;;;;;;;21.05;9.68;;;5.70;99.90;;;;;;5110444;28;20498;-59
2023/01/25 05:53:47;;;;;;;18.00;8.35;;;5.60;99.90;;;;;;5092206;28;20509;-58
2023/01/25 05:56:15;;;;;;;19.90;9.02;;;5.70;99.90;;;;;;5092246;28;20047;-59
2023/01/25 05:58:44;;;;;;;17.37;8.30;;;;;;;;;;5107128;27;20039;-58
2023/01/25 06:01:12;;;;;;;19.73;9.02;;;5.70;99.90;;;;;;5130746;27;20333;-58
2023/01/25 06:03:48;;;;;;;20.30;9.48;;;5.70;99.90;;;;;;5074074;28;20046;-61
2023/01/25 06:06:17;;;;;;;18.33;9.23;;;5.70;99.90;;;;;;5090630;28;20044;-62
2023/01/25 06:08:46;;;;;;;19.13;8.68;;;5.70;99.90;;;;;;5107363;27;20047;-63
2023/01/25 06:11:22;;;;;;;15.07;7.97;;;5.70;99.90;;;;;;5113933;27;20035;-60
2023/01/25 06:13:52;;;;;;;17.73;8.35;;;5.70;99.90;;;;;;5095148;28;20031;-63
2023/01/25 06:16:20;;;;;;;16.60;8.65;;;5.70;99.90;;;;;;5108722;28;20051;-62
2023/01/25 06:19:20;;;;;;;17.42;7.95;;;5.70;99.90;;;;;;5069150;28;20060;-63
2023/01/25 06:22:08;;;;;;;18.58;6.88;;;5.80;99.90;;;;;;5075317;27;20044;-63
2023/01/25 06:24:38;;;;;;;19.35;8.00;;;5.70;99.90;;;;;;5118375;27;20565;-58
2023/01/25 06:27:06;;;;;;;18.02;8.73;;;5.70;99.90;;;;;;5094177;27;20051;-59
2023/01/25 06:29:34;;;;;;;19.13;8.63;;;5.70;99.90;;;;;;5113434;27;20051;-62
2023/01/25 06:32:02;;;;;;;15.75;7.13;;;5.80;99.90;;;;;;5129587;27;20035;-60
2023/01/25 06:34:30;;;;;;;13.65;6.47;;;5.80;99.90;;;;;;5103880;28;20044;-58
2023/01/25 06:36:58;;;;;;;15.40;7.95;;;5.80;99.90;;;;;;5074678;28;20051;-59
2023/01/25 06:39:25;;;;;;;14.88;6.93;;;5.80;99.90;;;;;;5132004;27;20035;-58
2023/01/25 06:41:53;;;;;;;14.23;7.60;;;5.80;99.90;;;;;;5130943;27;20054;-59
2023/01/25 06:44:21;;;;;;;16.85;7.72;;;5.80;99.90;;;;;;5111099;28;20050;-58
2023/01/25 06:46:49;;;;;;;17.38;8.02;;;5.80;99.90;;;;;;5090683;28;20405;-59
2023/01/25 06:49:17;;;;;;;19.15;8.63;;;5.80;99.90;;;;;;5096241;27;20047;-58
2023/01/25 06:51:44;;;;;;;14.45;7.22;;;5.90;99.90;;;;;;5089335;28;20054;-61
2023/01/25 06:54:12;;;;;;;17.30;8.05;;;5.90;99.90;;;;;;5072546;28;20118;-61
2023/01/25 06:56:40;;;;;;;14.02;7.03;;;5.90;99.90;;;;;;5108617;28;20509;-64
2023/01/25 06:59:07;;;;;;;12.93;7.20;;;5.80;99.90;;;;;;5109528;28;20067;-63
2023/01/25 07:01:36;;;;;;;15.18;7.25;;;5.90;99.90;;;;;;5089956;28;20044;-60
2023/01/25 07:04:04;;;;;;;16.60;7.80;;;6.00;99.90;;;;;;5096308;27;20040;-63
2023/01/25 07:06:34;;;;;;;17.35;8.30;;;6.00;99.90;;;;;;5107625;28;20035;-60
2023/01/25 07:09:06;;;;;;;18.10;8.65;;;6.00;99.90;;;;;;5107474;28;20215;-59
2023/01/25 07:11:35;;;;;;;15.10;8.20;;;6.00;99.90;;;;;;5116849;27;20386;-61
2023/01/25 07:14:03;;;;;;;17.60;8.30;;;6.00;99.90;;;;;;5112091;27;20040;-57
2023/01/25 07:16:35;;;;;;;16.88;8.73;;;6.00;99.90;;;;;;5110452;28;20398;-58
2023/01/25 07:19:04;;;;;;;18.63;8.95;;;6.00;99.90;;;;;;5099777;28;20044;-61
2023/01/25 07:21:32;;;;;;;16.17;8.00;;;6.00;99.90;;;;;;5090144;28;20052;-59
2023/01/25 07:24:01;;;;;;;18.08;7.88;;;6.00;99.90;;;;;;5090025;28;20048;-60
2023/01/25 07:26:29;;;;;;;19.90;8.23;;;6.00;99.90;;;;;;5110118;28;20051;-63
2023/01/25 07:28:58;;;;;;;20.70;8.90;;;6.00;99.90;;;;;;5109873;28;20648;-64
2023/01/25 07:31:26;;;;;;;15.57;8.48;;;5.90;99.90;;;;;;5090558;28;20043;-65
2023/01/25 07:33:56;;;;;;;18.35;8.10;;;6.00;99.90;;;;;;5107260;27;20040;-63
2023/01/25 07:36:25;;;;;;;17.95;7.80;;;5.90;99.90;;;;;;5088286;28;20036;-61
2023/01/25 07:38:53;;;;;;;16.38;8.27;;;6.00;99.90;;;;;;5104555;28;20062;-62
2023/01/25 07:41:23;;;;;;;20.60;9.00;;;5.90;99.90;;;;;;5098165;28;20062;-62
2023/01/25 07:43:52;;;;;;;18.50;8.88;;;5.90;99.90;;;;;;5095352;28;20433;-62
2023/01/25 07:46:34;;;;;;;16.95;9.13;;;5.90;99.90;;;;;;5092433;28;20042;-61
2023/01/25 07:49:02;;;;;;;16.40;7.72;;;5.90;99.90;;;;;;5098272;28;20213;-61
2023/01/25 07:51:29;;;;;;;16.85;8.40;;;5.90;99.90;;;;;;5102136;28;20052;-58
2023/01/25 07:54:02;;;;;;;16.15;8.13;;;5.90;99.90;;;;;;5110133;28;20048;-59
2023/01/25 07:56:31;;;;;;;19.67;8.75;;;5.90;99.90;;;;;;5110131;28;20417;-63
2023/01/25 07:59:01;;;;;;;21.63;8.20;;;6.00;99.90;;;;;;5110261;28;20683;-59
2023/01/25 08:01:33;;;;;;;15.68;7.95;;;5.90;99.90;;;;;;5090323;28;20055;-58
2023/01/25 08:04:02;;;;;;;15.50;8.23;;;6.00;99.90;;;;;;5098807;28;20040;-57
2023/01/25 08:06:34;;;;;;;15.30;7.73;;;6.00;99.90;;;;;;5086826;28;20621;-59
2023/01/25 08:09:09;;;;;;;17.55;8.77;;;6.00;99.90;;;;;;5106898;28;20288;-61
2023/01/25 08:11:37;;;;;;;17.65;8.63;;;6.00;99.90;;;;;;5118658;28;20048;-59
2023/01/25 08:14:04;;;;;;;16.60;7.80;;;6.00;99.90;;;;;;5093292;28;20052;-58
2023/01/25 08:16:32;;;;;;;19.20;8.40;;;6.00;99.90;;;;;;5091734;28;20050;-59
2023/01/25 08:19:01;;;;;;;16.70;8.23;;;6.00;99.90;;;;;;5114554;28;20058;-63
2023/01/25 08:21:32;;;;;;;17.70;7.53;;;6.00;99.90;;;;;;5089713;28;20048;-63
2023/01/25 08:24:02;;;;;;;17.95;8.15;;;6.00;99.90;;;;;;5107192;28;20394;-63
2023/01/25 08:26:30;;;;;;;15.77;7.72;;;6.10;99.90;;;;;;5110015;28;20051;-62
2023/01/25 08:28:58;;;;;;;16.80;7.85;;;6.10;99.90;;;;;;5126075;28;20051;-59
2023/01/25 08:31:28;;;;;;;19.30;8.07;;;6.00;99.90;;;;;;5130231;28;20061;-61
2023/01/25 08:33:57;;;;;;;20.30;7.85;;;6.00;99.90;;;;;;5108320;28;20052;-61
2023/01/25 08:36:26;;;;;;;17.60;8.25;;;6.00;99.90;;;;;;5090416;28;20059;-62
2023/01/25 08:38:57;;;;;;;26.75;9.52;;;6.00;99.90;;;;;;5094602;28;20547;-60
2023/01/25 08:41:25;;;;;;;20.85;8.07;;;6.00;99.90;;;;;;5105346;28;20051;-62
2023/01/25 08:43:54;;;;;;;19.02;8.00;;;6.10;99.90;;;;;;5093878;28;20063;-61
2023/01/25 08:46:24;;;;;;;24.17;8.82;;;6.10;99.90;;;;;;5088093;28;20036;-63
2023/01/25 08:48:55;;;;;;;;;;;6.20;99.90;;;;;;5090644;28;20048;-62
2023/01/25 08:51:24;;;;;;;15.38;6.78;;;6.20;99.90;;;;;;5091732;28;19920;-62
2023/01/25 08:53:52;;;;;;;17.50;7.72;;;6.20;99.90;;;;;;5081163;28;20583;-63
2023/01/25 08:56:20;;;;;;;20.08;7.90;;;6.30;99.90;;;;;;5074165;28;20059;-58
2023/01/25 08:58:49;;;;;;;17.13;7.68;;;6.30;99.90;;;;;;5093240;28;20055;-59
2023/01/25 09:01:18;;;;;;;19.08;8.68;;;6.30;99.90;;;;;;5073805;28;20048;-58
2023/01/25 09:03:49;;;;;;;19.37;8.03;;;6.40;99.90;;;;;;5094861;27;20047;-59
2023/01/25 09:06:18;;;;;;;21.13;8.23;;;6.40;99.90;;;;;;5074538;28;20048;-58
2023/01/25 09:08:47;;;;;;;16.53;7.20;;;6.50;99.90;;;;;;5094191;27;20040;-58
2023/01/25 09:11:20;;;;;;;19.90;7.88;;;6.50;99.90;;;;;;5096089;27;20403;-59
2023/01/25 09:13:49;;;;;;;12.13;5.40;;;6.60;99.90;;;;;;5094228;28;20067;-59
2023/01/25 09:16:29;;;;;;;18.52;7.40;;;6.70;99.90;;;;;;5087726;28;20544;-59
2023/01/25 09:18:59;;;;;;;17.13;7.72;;;6.60;99.90;;;;;;5095684;28;20044;-58
2023/01/25 09:21:28;;;;;;;15.60;7.15;;;6.70;99.90;;;;;;5089230;28;20479;-60
2023/01/25 09:23:56;;;;;;;14.32;6.65;;;6.80;99.90;;;;;;5090687;28;20048;-60
2023/01/25 09:26:39;;;;;;;15.27;6.72;;;6.80;99.90;;;;;;5074293;28;20522;-58
2023/01/25 09:29:10;;;;;;;16.30;6.82;;;6.90;99.90;;;;;;5092922;28;20052;-59
2023/01/25 09:31:42;;;;;;;15.40;6.05;;;7.00;99.90;;;;;;5094606;28;20036;-59
2023/01/25 09:34:31;;;;;;;17.95;7.68;;;7.10;99.90;;;;;;5090666;27;20039;-57
2023/01/25 09:36:59;;;;;;;11.38;6.20;;;7.20;99.90;;;;;;5091531;28;20040;-58
2023/01/25 09:39:26;;;;;;;10.85;5.40;;;7.30;99.90;;;;;;5098272;27;20051;-57
2023/01/25 09:42:34;;;;;;;9.75;5.25;;;7.40;99.90;;;;;;5086258;28;20040;-57
2023/01/25 09:45:21;;;;;;;14.48;5.35;;;7.40;99.90;;;;;;5091366;28;20047;-57
2023/01/25 09:47:56;;;;;;;9.70;5.30;;;7.50;99.90;;;;;;5107554;27;20080;-58
2023/01/25 09:50:34;;;;;;;10.20;5.10;;;7.60;99.90;;;;;;5098916;27;20051;-58
2023/01/25 09:53:20;;;;;;;11.60;5.28;;;7.70;99.90;;;;;;5104523;27;20043;-58
2023/01/25 09:55:57;;;;;;;7.95;4.57;;;7.80;99.90;;;;;;5109690;28;20050;-56
2023/01/25 09:58:45;;;;;;;13.10;6.03;;;7.80;99.90;;;;;;5102389;27;20636;-58
2023/01/25 10:01:26;;;;;;;8.52;5.50;;;7.80;99.90;;;;;;5108745;28;20048;-57
2023/01/25 10:04:13;;;;;;;10.55;5.30;;;7.90;99.90;;;;;;5078466;28;20062;-60
2023/01/25 10:06:44;;;;;;;10.35;5.47;;;8.00;99.90;;;;;;5106556;28;20050;-56
2023/01/25 10:09:47;;;;;;;8.40;4.60;;;8.00;99.90;;;;;;5092514;28;20047;-57
2023/01/25 10:12:25;;;;;;;6.47;3.53;;;8.10;99.90;;;;;;5085649;28;20052;-57
2023/01/25 10:14:53;;;;;;;10.43;5.10;;;8.10;99.90;;;;;;5090234;28;20295;-59
2023/01/25 10:17:41;;;;;;;9.07;5.00;;;8.10;99.90;;;;;;5106835;28;20031;-58
2023/01/25 10:20:54;;;;;;;13.45;6.05;;;8.20;99.90;;;;;;5103774;27;20048;-58
2023/01/25 10:23:36;;;;;;;8.70;4.60;;;8.20;99.90;;;;;;5096743;28;20044;-62
2023/01/25 10:26:13;;;;;;;9.63;5.00;;;8.30;99.90;;;;;;5106724;28;20054;-59
2023/01/25 10:28:55;;;;;;;9.27;5.25;;;8.30;99.90;;;;;;5090222;27;20036;-57
2023/01/25 10:31:33;;;;;;;9.95;4.80;;;8.30;99.90;;;;;;5089449;28;20060;-62
2023/01/25 10:34:11;;;;;;;7.45;4.55;;;8.40;99.90;;;;;;5097185;27;20055;-57
2023/01/25 10:36:39;;;;;;;8.40;4.68;;;8.40;99.90;;;;;;5090546;28;20040;-62
2023/01/25 10:39:09;;;;;;;10.25;4.43;;;8.40;99.90;;;;;;5093018;27;20047;-63
2023/01/25 10:42:07;;;;;;;9.38;5.05;;;8.40;99.90;;;;;;5095136;27;20043;-64
2023/01/25 10:44:35;;;;;;;7.68;3.88;;;8.40;99.90;;;;;;5085093;28;20060;-62
2023/01/25 10:47:02;;;;;;;8.90;5.13;;;8.50;99.90;;;;;;5089740;28;20059;-61
2023/01/25 10:49:41;;;;;;;7.43;4.45;;;8.50;99.90;;;;;;5091343;28;20039;-59
2023/01/25 10:52:13;;;;;;;7.63;3.88;;;8.50;99.90;;;;;;5096382;28;20047;-62
2023/01/25 10:54:41;;;;;;;9.18;4.40;;;8.50;99.90;;;;;;5089701;28;20515;-60
2023/01/25 10:57:18;;;;;;;6.75;3.70;;;8.50;99.90;;;;;;5088767;27;20044;-62
2023/01/25 10:59:49;;;;;;;6.63;3.78;;;8.50;99.90;;;;;;5086498;28;20040;-58
2023/01/25 11:02:35;;;;;;;6.95;4.28;;;8.50;99.90;;;;;;5091564;28;20066;-60
2023/01/25 11:05:40;;;;;;;8.50;4.63;;;8.50;99.90;;;;;;5085739;27;20616;-60
2023/01/25 11:08:31;;;;;;;8.90;4.85;;;8.40;99.90;;;;;;5077752;27;20048;-63
2023/01/25 11:10:59;;;;;;;6.72;4.30;;;8.40;99.90;;;;;;5102670;28;20055;-60
2023/01/25 11:13:28;;;;;;;7.75;4.20;;;8.50;99.90;;;;;;5089323;28;20047;-62
2023/01/25 11:16:00;;;;;;;7.93;4.45;;;8.40;99.90;;;;;;5086724;28;20067;-62
2023/01/25 11:18:32;;;;;;;6.38;4.07;;;8.40;99.90;;;;;;5095249;28;20040;-60
2023/01/25 11:21:27;;;;;;;10.00;4.40;;;8.40;99.90;;;;;;5086432;28;20067;-63
2023/01/25 11:24:04;;;;;;;7.55;4.30;;;8.40;99.90;;;;;;5089815;28;20040;-64
2023/01/25 11:26:33;;;;;;;11.27;5.18;;;8.30;99.90;;;;;;5106853;28;20429;-57
2023/01/25 11:29:09;;;;;;;15.93;5.15;;;8.30;99.90;;;;;;5096143;27;20036;-57
2023/01/25 11:31:40;;;;;;;10.75;5.10;;;8.30;99.90;;;;;;5095825;27;20039;-57
2023/01/25 11:34:12;;;;;;;15.45;4.70;;;8.30;99.90;;;;;;5097797;28;20040;-58
2023/01/25 11:36:55;;;;;;;9.63;4.72;;;8.30;99.90;;;;;;5095137;27;20051;-56
2023/01/25 11:39:56;;;;;;;7.60;4.32;;;8.30;99.90;;;;;;5092074;28;20047;-56
2023/01/25 11:42:31;;;;;;;9.13;4.55;;;8.40;99.90;;;;;;5091404;28;20526;-58
2023/01/25 11:45:27;;;;;;;9.32;4.72;;;8.40;99.90;;;;;;5087815;28;20047;-58
2023/01/25 11:48:01;;;;;;;9.80;4.10;;;8.40;99.90;;;;;;5098633;28;20624;-57
2023/01/25 11:51:00;;;;;;;6.30;3.92;;;8.40;99.90;;;;;;5092413;28;20044;-58
2023/01/25 11:53:27;;;;;;;8.15;4.93;;;8.50;99.90;;;;;;5090942;28;20044;-58
2023/01/25 11:55:58;;;;;;;9.73;4.85;;;8.60;99.90;;;;;;5091256;28;20483;-60
2023/01/25 11:58:42;;;;;;;11.73;5.00;;;8.60;99.90;;;;;;5098929;28;20486;-57
2023/01/25 12:01:21;;;;;;;10.05;5.35;;;8.60;99.90;;;;;;5105327;28;20066;-59
2023/01/25 12:04:10;;;;;;;9.73;4.73;;;8.70;99.90;;;;;;5090286;28;20039;-60
2023/01/25 12:06:57;;;;;;;9.57;4.95;;;9.00;99.90;;;;;;5092951;28;20284;-59
2023/01/25 12:10:00;;;;;;;15.85;5.57;;;9.00;99.90;;;;;;5097838;28;20062;-59
2023/01/25 12:12:42;;;;;;;7.38;3.85;;;9.30;99.90;;;;;;5092158;28;20050;-58
2023/01/25 12:15:33;;;;;;;8.38;3.42;;;9.40;99.90;;;;;;5085937;28;20044;-58
2023/01/25 12:18:01;;;;;;;5.38;3.22;;;9.40;99.90;;;;;;5086926;28;20047;-57
2023/01/25 12:20:36;;;;;;;4.80;3.03;;;9.70;99.90;;;;;;5090790;28;20052;-58
2023/01/25 12:23:25;;;;;;;6.00;3.25;;;9.80;99.90;;;;;;5096076;28;20040;-63
2023/01/25 12:26:03;;;;;;;7.80;3.35;;;9.80;99.90;;;;;;5096182;28;20052;-59
2023/01/25 12:28:43;;;;;;;5.47;3.28;;;9.80;99.90;;;;;;5097429;27;20048;-57
2023/01/25 12:31:15;;;;;;;;;;;9.80;99.90;;;;;;5100108;28;20540;-57
2023/01/25 12:33:58;;;;;;;7.88;3.65;;;10.10;99.90;;;;;;5091510;28;19920;-57
2023/01/25 12:36:39;;;;;;;3.60;2.80;;;10.40;99.90;;;;;;5094525;27;20055;-57
2023/01/25 12:39:24;;;;;;;4.85;3.30;;;10.50;99.90;;;;;;5092800;27;20395;-58
2023/01/25 12:42:14;;;;;;;6.65;3.78;;;10.50;99.90;;;;;;5097576;27;20110;-58
2023/01/25 12:44:48;;;;;;;4.38;3.45;;;10.40;99.90;;;;;;5093151;27;20410;-57
2023/01/25 12:47:19;;;;;;;4.30;3.33;;;10.30;99.90;;;;;;5102396;27;20044;-56
2023/01/25 12:49:50;;;;;;;5.43;3.17;;;10.20;99.90;;;;;;5097018;28;20044;-56
2023/01/25 12:52:26;;;;;;;4.60;3.03;;;10.10;99.90;;;;;;5081702;28;20040;-56
2023/01/25 12:54:56;;;;;;;4.95;3.05;;;10.00;99.90;;;;;;5095055;28;20048;-58
2023/01/25 12:57:51;;;;;;;3.60;2.70;;;10.00;99.90;;;;;;5103461;27;20047;-56
2023/01/25 13:00:32;;;;;;;4.25;2.97;;;9.90;99.90;;;;;;5086470;28;20105;-57
2023/01/25 13:03:15;;;;;;;8.00;3.28;;;9.80;99.90;;;;;;5099194;28;20052;-62
2023/01/25 13:05:43;;;;;;;4.25;3.08;;;9.80;99.90;;;;;;5108088;28;20039;-59
2023/01/25 13:08:37;;;;;;;4.45;2.83;;;9.80;99.90;;;;;;5082752;28;20804;-58
2023/01/25 13:11:25;;;;;;;4.40;2.80;;;9.90;99.90;;;;;;5083188;27;20055;-58
2023/01/25 13:14:22;;;;;;;5.13;3.15;;;9.90;99.90;;;;;;5097252;28;20047;-59
2023/01/25 13:16:51;;;;;;;5.20;3.50;;;9.80;99.90;;;;;;5109418;28;20046;-58
2023/01/25 13:19:36;;;;;;;6.53;3.10;;;9.80;99.90;;;;;;5100975;28;20039;-61
2023/01/25 13:22:04;;;;;;;5.30;3.03;;;9.70;99.90;;;;;;5094115;28;20052;-60